Time;durP1;ratioP1;P1;durP2;ratioP2;P2;SDS_P1;SDS_P2;PMS_P1;PMS_P2;Temp;Humidity;BMP_temperature;BMP_pressure;BME280_temperature;BME280_humidity;BME280_pressure;Samples;Min_cycle;Max_cycle;Signal;HPM_P1;HPM_P2
2022/03/25 00:01:23;;;;;;;27.88;17.05;;;;;;;;;;5003359;28;20117;-72
2022/03/25 00:03:49;;;;;;;27.08;16.17;;;;;;;;;;4999095;28;20101;-71
2022/03/25 00:06:17;;;;;;;25.55;16.98;;;;;;;;;;5005575;28;20087;-71
2022/03/25 00:08:43;;;;;;;28.17;17.42;;;;;;;;;;5004811;28;20044;-71
2022/03/25 00:11:09;;;;;;;31.45;17.63;;;;;;;;;;5011283;28;20802;-71
2022/03/25 00:13:35;;;;;;;25.25;16.40;;;;;;;;;;5002688;28;20049;-71
2022/03/25 00:16:04;;;;;;;23.17;16.60;;;;;;;;;;5008235;28;20034;-73
2022/03/25 00:18:30;;;;;;;30.70;17.30;;;;;;;;;;5025077;28;20030;-72
2022/03/25 00:20:56;;;;;;;28.08;15.95;;;;;;;;;;5007590;28;20391;-72
2022/03/25 00:23:23;;;;;;;25.42;16.40;;;;;;;;;;5004338;28;20041;-73
2022/03/25 00:25:49;;;;;;;26.85;18.00;;;;;;;;;;5000319;28;20035;-72
2022/03/25 00:28:15;;;;;;;29.17;15.90;;;;;;;;;;5008951;28;20022;-70
2022/03/25 00:30:43;;;;;;;25.08;15.30;;;;;;;;;;4999483;28;20817;-72
2022/03/25 00:33:09;;;;;;;27.23;16.80;;;;;;;;;;5004984;28;20108;-72
2022/03/25 00:35:35;;;;;;;28.85;15.88;;;;;;;;;;5007700;28;20042;-72
2022/03/25 00:38:01;;;;;;;24.80;16.60;;;;;;;;;;4997173;28;20108;-71
2022/03/25 00:40:28;;;;;;;27.75;16.95;;;;;;;;;;4998670;28;20101;-71
2022/03/25 00:42:54;;;;;;;27.90;17.48;;;;;;;;;;5009870;28;20495;-71
2022/03/25 00:45:21;;;;;;;26.60;17.05;;;;;;;;;;5006324;28;20033;-72
2022/03/25 00:47:47;;;;;;;28.90;19.23;;;;;;;;;;5001200;28;20028;-72
2022/03/25 00:50:14;;;;;;;35.70;18.35;;;;;;;;;;5010774;28;20483;-72
2022/03/25 00:52:40;;;;;;;33.22;18.35;;;;;;;;;;5006738;28;20029;-72
2022/03/25 00:55:06;;;;;;;27.77;17.95;;;;;;;;;;5002566;28;20049;-71
2022/03/25 00:57:33;;;;;;;31.23;18.70;;;;;;;;;;4998956;28;20506;-71
2022/03/25 01:00:00;;;;;;;34.33;19.25;;;;;;;;;;4996195;28;20036;-72
2022/03/25 01:02:26;;;;;;;28.60;17.40;;;;;;;;;;5002964;28;20023;-71
2022/03/25 01:04:52;;;;;;;32.30;17.83;;;;;;;;;;5008868;28;20040;-70
2022/03/25 01:07:18;;;;;;;26.67;17.88;;;;;;;;;;4999643;28;20382;-70
2022/03/25 01:09:44;;;;;;;35.70;18.88;;;;;;;;;;5011868;28;20109;-71
2022/03/25 01:12:11;;;;;;;27.92;17.30;;;;;;;;;;5006609;28;20775;-71
2022/03/25 01:14:37;;;;;;;36.13;18.45;;;;;;;;;;5009641;28;20500;-72
2022/03/25 01:17:03;;;;;;;31.48;19.77;;;;;;;;;;5006509;28;20029;-72
2022/03/25 01:19:30;;;;;;;32.08;18.65;;;;;;;;;;5009745;28;20041;-73
2022/03/25 01:21:56;;;;;;;33.15;19.75;;;;;;;;;;5001065;28;20045;-72
2022/03/25 01:24:23;;;;;;;27.30;18.30;;;;;;;;;;5004893;28;20502;-72
2022/03/25 01:26:49;;;;;;;30.60;18.58;;;;;;;;;;5007251;28;20035;-72
2022/03/25 01:29:15;;;;;;;36.25;18.40;;;;;;;;;;5010865;28;20030;-72
2022/03/25 01:31:41;;;;;;;29.80;18.10;;;;;;;;;;5013201;28;20026;-71
2022/03/25 01:34:07;;;;;;;33.20;19.05;;;;;;;;;;5012128;28;20832;-72
2022/03/25 01:36:34;;;;;;;30.88;17.90;;;;;;;;;;5005878;28;20497;-71
2022/03/25 01:39:01;;;;;;;34.53;18.85;;;;;;;;;;5001257;28;20030;-72
2022/03/25 01:41:27;;;;;;;33.00;18.48;;;;;;;;;;5008204;28;20188;-72
2022/03/25 01:43:55;;;;;;;32.38;18.40;;;;;;;;;;4998679;28;20025;-72
2022/03/25 01:46:21;;;;;;;29.80;19.90;;;;;;;;;;5012258;28;20483;-72
2022/03/25 01:48:48;;;;;;;30.75;19.20;;;;;;;;;;5000882;28;20033;-71
2022/03/25 01:51:25;;;;;;;32.55;18.35;;;;;;;;;;4996076;28;20030;-71
2022/03/25 01:53:51;;;;;;;31.52;19.50;;;;;;;;;;4997741;28;20034;-71
2022/03/25 01:56:21;;;;;;;29.48;18.67;;;;;;;;;;5004757;28;20103;-72
2022/03/25 01:58:47;;;;;;;33.05;19.50;;;;;;;;;;4997072;28;20018;-71
2022/03/25 02:01:13;;;;;;;32.45;19.52;;;;;;;;;;4997912;28;20030;-72
2022/03/25 02:03:39;;;;;;;31.88;19.20;;;;;;;;;;5003063;28;20080;-71
2022/03/25 02:06:06;;;;;;;34.60;19.45;;;;;;;;;;5005433;28;20816;-71
2022/03/25 02:08:32;;;;;;;34.67;20.20;;;;;;;;;;5006470;28;20034;-71
2022/03/25 02:10:59;;;;;;;32.70;20.15;;;;;;;;;;5002741;28;20029;-71
2022/03/25 02:13:25;;;;;;;30.73;19.35;;;;;;;;;;5001140;28;20735;-71
2022/03/25 02:15:52;;;;;;;34.17;19.40;;;;;;;;;;5005699;28;20025;-72
2022/03/25 02:18:19;;;;;;;34.22;20.15;;;;;;;;;;5002904;28;20037;-71
2022/03/25 02:20:46;;;;;;;32.30;19.70;;;;;;;;;;5006557;28;20084;-71
2022/03/25 02:23:13;;;;;;;35.15;20.67;;;;;;;;;;4997620;28;20037;-71
2022/03/25 02:25:40;;;;;;;36.47;20.70;;;;;;;;;;5002660;28;20062;-71
2022/03/25 02:28:06;;;;;;;35.60;20.90;;;;;;;;;;5005419;28;20503;-71
2022/03/25 02:30:33;;;;;;;34.03;20.30;;;;;;;;;;5003136;28;20045;-71
2022/03/25 02:33:02;;;;;;;33.75;20.40;;;;;;;;;;5005640;28;20570;-72
2022/03/25 02:35:36;;;;;;;32.55;20.38;;;;;;;;;;5006800;28;20073;-72
2022/03/25 02:38:02;;;;;;;30.98;20.05;;;;;;;;;;5003954;28;20554;-72
2022/03/25 02:40:28;;;;;;;30.48;20.10;;;;;;;;;;5007928;28;20028;-72
2022/03/25 02:42:54;;;;;;;33.42;21.65;;;;;;;;;;5008328;28;20510;-71
2022/03/25 02:45:20;;;;;;;31.40;19.30;;;;;;;;;;5007456;28;20041;-72
2022/03/25 02:47:46;;;;;;;35.67;21.20;;;;;;;;;;5003328;28;20088;-72
2022/03/25 02:50:12;;;;;;;34.65;19.50;;;;;;;;;;5007405;28;20027;-72
2022/03/25 02:52:38;;;;;;;33.75;19.70;;;;;;;;;;5003186;28;20098;-72
2022/03/25 02:55:05;;;;;;;40.08;21.15;;;;;;;;;;5000091;28;20041;-71
2022/03/25 02:57:31;;;;;;;31.15;19.85;;;;;;;;;;5005478;28;20026;-72
2022/03/25 02:59:57;;;;;;;32.22;19.17;;;;;;;;;;4996125;28;20030;-71
2022/03/25 03:02:23;;;;;;;26.42;17.75;;;;;;;;;;4995573;28;20030;-72
2022/03/25 03:04:49;;;;;;;33.00;19.83;;;;;;;;;;5002636;28;20077;-70
2022/03/25 03:07:16;;;;;;;33.53;19.77;;;;;;;;;;4997429;28;20388;-72
2022/03/25 03:09:42;;;;;;;29.58;18.65;;;;;;;;;;5004903;28;20057;-72
2022/03/25 03:12:08;;;;;;;32.97;19.48;;;;;;;;;;4996771;28;20096;-71
2022/03/25 03:14:36;;;;;;;32.67;20.65;;;;;;;;;;5004772;28;20084;-72
2022/03/25 03:17:02;;;;;;;29.83;19.48;;;;;;;;;;5005930;28;20044;-71
2022/03/25 03:19:28;;;;;;;32.42;19.67;;;;;;;;;;5003720;28;20060;-72
2022/03/25 03:21:54;;;;;;;34.72;19.42;;;;;;;;;;4996321;28;20106;-72
2022/03/25 03:24:20;;;;;;;31.85;19.60;;;;;;;;;;5001221;28;20049;-71
2022/03/25 03:26:46;;;;;;;31.95;19.95;;;;;;;;;;4999176;28;20038;-72
2022/03/25 03:29:13;;;;;;;32.53;19.27;;;;;;;;;;4998290;28;20029;-71
2022/03/25 03:31:39;;;;;;;33.92;20.23;;;;;;;;;;4991359;28;20034;-72
2022/03/25 03:34:05;;;;;;;36.80;21.70;;;;;;;;;;4998020;28;20080;-71
2022/03/25 03:36:31;;;;;;;31.23;19.73;;;;;;;;;;4999484;28;20134;-71
2022/03/25 03:38:57;;;;;;;35.35;20.58;;;;;;;;;;5001306;28;20385;-72
2022/03/25 03:41:25;;;;;;;31.73;20.13;;;;;;;;;;4999735;28;20101;-72
2022/03/25 03:43:51;;;;;;;32.20;20.15;;;;;;;;;;5002766;28;20084;-72
2022/03/25 03:46:18;;;;;;;32.65;20.33;;;;;;;;;;5012891;28;20455;-71
2022/03/25 03:48:45;;;;;;;31.17;19.20;;;;;;;;;;5016112;28;20034;-72
2022/03/25 03:51:11;;;;;;;33.00;19.77;;;;;;;;;;5001232;28;20019;-71
2022/03/25 03:53:37;;;;;;;31.50;19.17;;;;;;;;;;5000288;28;20030;-71
2022/03/25 03:56:04;;;;;;;33.72;19.42;;;;;;;;;;4999100;28;20034;-72
2022/03/25 03:58:30;;;;;;;31.38;19.60;;;;;;;;;;4997349;28;20026;-71
2022/03/25 04:00:56;;;;;;;31.10;18.92;;;;;;;;;;5002392;28;20081;-72
2022/03/25 04:03:22;;;;;;;28.50;18.98;;;;;;;;;;5002114;28;20379;-72
2022/03/25 04:05:48;;;;;;;32.05;19.60;;;;;;;;;;5003154;28;20033;-71
2022/03/25 04:08:14;;;;;;;29.25;19.88;;;;;;;;;;5003393;28;20101;-72
2022/03/25 04:10:40;;;;;;;32.38;19.17;;;;;;;;;;5001642;28;20026;-71
2022/03/25 04:13:06;;;;;;;31.70;18.35;;;;;;;;;;5000666;28;20076;-72
2022/03/25 04:15:33;;;;;;;30.98;19.27;;;;;;;;;;5005000;28;20037;-71
2022/03/25 04:17:59;;;;;;;28.15;18.83;;;;;;;;;;5003955;28;20040;-71
2022/03/25 04:20:25;;;;;;;29.98;18.00;;;;;;;;;;5002463;28;20058;-71
2022/03/25 04:22:51;;;;;;;33.30;19.15;;;;;;;;;;4995749;28;20026;-73
2022/03/25 04:25:18;;;;;;;33.13;19.13;;;;;;;;;;4996345;28;20030;-72
2022/03/25 04:27:48;;;;;;;25.63;17.92;;;;;;;;;;5009814;28;20139;-71
2022/03/25 04:30:17;;;;;;;32.25;17.77;;;;;;;;;;5001150;28;20412;-71
2022/03/25 04:32:43;;;;;;;32.72;18.20;;;;;;;;;;5000781;28;20030;-71
2022/03/25 04:35:09;;;;;;;26.33;16.33;;;;;;;;;;4997190;28;20088;-72
2022/03/25 04:37:36;;;;;;;26.95;17.15;;;;;;;;;;5004527;28;20093;-71
2022/03/25 04:40:02;;;;;;;25.63;17.00;;;;;;;;;;4996091;28;20022;-70
2022/03/25 04:42:29;;;;;;;31.27;18.33;;;;;;;;;;4994878;28;20065;-71
2022/03/25 04:44:55;;;;;;;28.15;18.02;;;;;;;;;;5002404;28;20081;-71
2022/03/25 04:47:21;;;;;;;31.80;19.55;;;;;;;;;;4998079;28;20025;-69
2022/03/25 04:49:48;;;;;;;30.48;19.08;;;;;;;;;;5018727;28;20026;-71
2022/03/25 04:52:15;;;;;;;34.70;19.23;;;;;;;;;;5003808;28;20084;-71
2022/03/25 04:54:41;;;;;;;28.10;18.80;;;;;;;;;;5011986;28;20476;-71
2022/03/25 04:57:07;;;;;;;29.83;19.50;;;;;;;;;;5014793;28;20032;-71
2022/03/25 04:59:33;;;;;;;33.15;18.90;;;;;;;;;;4996281;28;20576;-71
2022/03/25 05:01:59;;;;;;;33.10;18.85;;;;;;;;;;5001931;28;20036;-71
2022/03/25 05:04:25;;;;;;;28.98;17.40;;;;;;;;;;5000670;28;20028;-71
2022/03/25 05:06:51;;;;;;;28.67;18.70;;;;;;;;;;5009516;28;20085;-71
2022/03/25 05:09:17;;;;;;;29.17;17.90;;;;;;;;;;4995530;28;20038;-71
2022/03/25 05:11:44;;;;;;;29.52;18.52;;;;;;;;;;4999890;28;20546;-71
2022/03/25 05:14:10;;;;;;;28.58;18.35;;;;;;;;;;5002119;28;20142;-71
2022/03/25 05:16:37;;;;;;;31.73;19.60;;;;;;;;;;5001410;28;20029;-71
2022/03/25 05:19:03;;;;;;;26.90;17.20;;;;;;;;;;5002331;28;20540;-71
2022/03/25 05:21:29;;;;;;;28.50;18.40;;;;;;;;;;4998758;28;20038;-71
2022/03/25 05:23:55;;;;;;;32.20;18.67;;;;;;;;;;4999002;28;20030;-71
2022/03/25 05:26:21;;;;;;;30.40;17.90;;;;;;;;;;4998839;28;20045;-70
2022/03/25 05:28:47;;;;;;;32.15;18.20;;;;;;;;;;4998666;28;20030;-71
2022/03/25 05:31:13;;;;;;;30.90;17.45;;;;;;;;;;4995427;28;20030;-70
2022/03/25 05:33:39;;;;;;;29.60;19.25;;;;;;;;;;4994655;28;20033;-71
2022/03/25 05:36:06;;;;;;;33.92;19.35;;;;;;;;;;4995997;28;20038;-71
2022/03/25 05:38:32;;;;;;;30.60;18.00;;;;;;;;;;4999286;28;20380;-72
2022/03/25 05:40:58;;;;;;;30.98;19.02;;;;;;;;;;5000695;28;20515;-71
2022/03/25 05:43:24;;;;;;;27.70;18.90;;;;;;;;;;5017348;28;20030;-71
2022/03/25 05:45:50;;;;;;;30.10;18.25;;;;;;;;;;5000044;28;20029;-71
2022/03/25 05:48:16;;;;;;;31.15;18.10;;;;;;;;;;4998386;28;20034;-71
2022/03/25 05:50:42;;;;;;;33.53;17.50;;;;;;;;;;5000693;28;20030;-71
2022/03/25 05:53:08;;;;;;;29.20;18.33;;;;;;;;;;5000275;28;20073;-71
2022/03/25 05:55:34;;;;;;;32.95;19.75;;;;;;;;;;5003174;28;20030;-72
2022/03/25 05:58:01;;;;;;;30.60;19.27;;;;;;;;;;5002744;28;20041;-71
2022/03/25 06:00:27;;;;;;;26.00;17.42;;;;;;;;;;5008195;28;20116;-72
2022/03/25 06:02:53;;;;;;;24.92;16.73;;;;;;;;;;5000386;28;20059;-71
2022/03/25 06:05:19;;;;;;;26.67;17.38;;;;;;;;;;5008162;28;20030;-71
2022/03/25 06:07:45;;;;;;;29.00;17.88;;;;;;;;;;4993752;28;20376;-71
2022/03/25 06:10:12;;;;;;;26.73;16.58;;;;;;;;;;5004696;28;20109;-71
2022/03/25 06:12:39;;;;;;;31.23;17.95;;;;;;;;;;4994035;28;20571;-70
2022/03/25 06:15:06;;;;;;;32.08;18.48;;;;;;;;;;4997419;28;20397;-71
2022/03/25 06:17:32;;;;;;;28.05;17.75;;;;;;;;;;5004335;28;20022;-71
2022/03/25 06:19:58;;;;;;;27.95;16.05;;;;;;;;;;5007581;28;20514;-71
2022/03/25 06:22:25;;;;;;;27.85;17.23;;;;;;;;;;4997955;28;20058;-71
2022/03/25 06:24:52;;;;;;;27.05;16.83;;;;;;;;;;4996737;28;20018;-70
2022/03/25 06:27:18;;;;;;;28.73;17.48;;;;;;;;;;4999124;28;20030;-71
2022/03/25 06:29:44;;;;;;;31.45;17.52;;;;;;;;;;5000673;28;20541;-72
2022/03/25 06:32:10;;;;;;;29.60;16.05;;;;;;;;;;5006813;28;20025;-71
2022/03/25 06:34:36;;;;;;;31.25;17.58;;;;;;;;;;5005011;28;20113;-71
2022/03/25 06:37:04;;;;;;;27.77;16.50;;;;;;;;;;4997170;28;20077;-71
2022/03/25 06:39:30;;;;;;;28.50;17.98;;;;;;;;;;5000759;28;20083;-71
2022/03/25 06:41:56;;;;;;;25.92;17.73;;;;;;;;;;5002354;28;20484;-72
2022/03/25 06:44:22;;;;;;;28.77;18.90;;;;;;;;;;4999001;28;20042;-72
2022/03/25 06:46:48;;;;;;;29.80;16.85;;;;;;;;;;4994883;28;20108;-71
2022/03/25 06:49:15;;;;;;;29.63;18.98;;;;;;;;;;5009788;28;20507;-71
2022/03/25 06:51:41;;;;;;;28.50;18.77;;;;;;;;;;4995882;28;20022;-70
2022/03/25 06:54:07;;;;;;;28.58;18.95;;;;;;;;;;5005666;28;20033;-71
2022/03/25 06:56:35;;;;;;;26.60;16.52;;;;;;;;;;5002801;28;20393;-71
2022/03/25 06:59:01;;;;;;;27.52;17.88;;;;;;;;;;5005254;28;20022;-71
2022/03/25 07:01:27;;;;;;;31.65;17.63;;;;;;;;;;5001582;28;20041;-71
2022/03/25 07:03:53;;;;;;;30.15;18.23;;;;;;;;;;5002322;28;20051;-71
2022/03/25 07:06:24;;;;;;;27.52;17.73;;;;;;;;;;5003850;28;20030;-71
2022/03/25 07:08:55;;;;;;;28.05;16.50;;;;;;;;;;5006508;28;20433;-71
2022/03/25 07:11:21;;;;;;;30.42;17.33;;;;;;;;;;5013993;28;20037;-71
2022/03/25 07:13:48;;;;;;;30.20;17.85;;;;;;;;;;5002364;28;20474;-71
2022/03/25 07:16:14;;;;;;;31.88;18.30;;;;;;;;;;4996565;28;20036;-72
2022/03/25 07:18:40;;;;;;;28.30;19.35;;;;;;;;;;5009178;28;20037;-71
2022/03/25 07:21:06;;;;;;;30.83;17.42;;;;;;;;;;5005035;28;20022;-71
2022/03/25 07:23:32;;;;;;;29.15;17.55;;;;;;;;;;5004464;28;20038;-72
2022/03/25 07:25:58;;;;;;;30.10;19.77;;;;;;;;;;4997642;28;20061;-71
2022/03/25 07:28:24;;;;;;;30.50;18.65;;;;;;;;;;5015403;28;20034;-72
2022/03/25 07:30:51;;;;;;;32.03;18.90;;;;;;;;;;5012821;28;20105;-72
2022/03/25 07:33:17;;;;;;;33.40;18.17;;;;;;;;;;4999471;28;20045;-71
2022/03/25 07:35:43;;;;;;;33.22;19.33;;;;;;;;;;5013013;28;20060;-72
2022/03/25 07:38:09;;;;;;;34.70;17.65;;;;;;;;;;5013136;28;20040;-71
2022/03/25 07:40:35;;;;;;;36.72;17.83;;;;;;;;;;5003524;28;20511;-71
2022/03/25 07:43:01;;;;;;;32.72;21.15;;;;;;;;;;5001858;28;20026;-72
2022/03/25 07:45:27;;;;;;;29.63;20.13;;;;;;;;;;5008545;28;20667;-71
2022/03/25 07:47:54;;;;;;;37.63;20.83;;;;;;;;;;5008876;28;20034;-71
2022/03/25 07:50:23;;;;;;;35.63;20.13;;;;;;;;;;5004328;28;20034;-70
2022/03/25 07:52:50;;;;;;;32.60;20.67;;;;;;;;;;5006491;28;20376;-71
2022/03/25 07:55:18;;;;;;;32.97;19.80;;;;;;;;;;5003093;28;20361;-72
2022/03/25 07:57:44;;;;;;;32.05;20.70;;;;;;;;;;5006443;28;20014;-72
2022/03/25 08:00:11;;;;;;;40.78;22.85;;;;;;;;;;4998117;28;20524;-71
2022/03/25 08:02:38;;;;;;;35.80;23.08;;;;;;;;;;4998537;28;20026;-71
2022/03/25 08:05:05;;;;;;;32.22;20.25;;;;;;;;;;5014118;28;20017;-72
2022/03/25 08:07:31;;;;;;;40.75;22.55;;;;;;;;;;5000954;28;20045;-71
2022/03/25 08:09:58;;;;;;;35.10;22.17;;;;;;;;;;5003881;28;20204;-71
2022/03/25 08:12:24;;;;;;;38.58;23.55;;;;;;;;;;5006001;28;20018;-71
2022/03/25 08:14:50;;;;;;;43.30;25.25;;;;;;;;;;5005930;28;20050;-71
2022/03/25 08:17:18;;;;;;;37.60;24.45;;;;;;;;;;4999826;28;20018;-71
2022/03/25 08:19:44;;;;;;;42.13;23.42;;;;;;;;;;4997782;28;20032;-71
2022/03/25 08:22:10;;;;;;;38.58;23.23;;;;;;;;;;5010606;28;20041;-71
2022/03/25 08:30:06;;;;;;;38.75;23.55;;;;;;;;;;4999155;28;20786;-72
2022/03/25 08:32:32;;;;;;;38.67;22.40;;;;;;;;;;5006631;28;20036;-72
2022/03/25 08:34:58;;;;;;;42.05;23.50;;;;;;;;;;4997891;28;20033;-71
2022/03/25 08:37:25;;;;;;;45.75;23.33;;;;;;;;;;4999337;28;20052;-72
2022/03/25 08:39:52;;;;;;;37.60;22.23;;;;;;;;;;5000323;28;20105;-71
2022/03/25 08:42:18;;;;;;;41.60;24.27;;;;;;;;;;4998120;28;20556;-71
2022/03/25 08:44:44;;;;;;;43.45;23.35;;;;;;;;;;4997731;28;20109;-72
2022/03/25 08:47:10;;;;;;;39.13;22.73;;;;;;;;;;4999860;28;20112;-72
2022/03/25 08:49:36;;;;;;;38.45;24.08;;;;;;;;;;5009258;28;20036;-72
2022/03/25 08:52:02;;;;;;;40.33;24.60;;;;;;;;;;4999137;28;20395;-72
2022/03/25 08:54:28;;;;;;;39.35;22.38;;;;;;;;;;4996572;28;20126;-72
2022/03/25 08:56:55;;;;;;;38.45;22.80;;;;;;;;;;4998161;28;20038;-70
2022/03/25 08:59:21;;;;;;;38.15;21.80;;;;;;;;;;5009058;28;20029;-71
2022/03/25 09:01:47;;;;;;;36.33;22.17;;;;;;;;;;4996792;28;20037;-72
2022/03/25 09:04:13;;;;;;;36.65;22.50;;;;;;;;;;4999841;28;20049;-70
2022/03/25 09:06:39;;;;;;;37.08;23.77;;;;;;;;;;4997693;28;20715;-71
2022/03/25 09:09:05;;;;;;;40.55;23.48;;;;;;;;;;5000730;28;20025;-71
2022/03/25 09:11:31;;;;;;;40.22;24.00;;;;;;;;;;4999660;28;20128;-70
2022/03/25 09:13:57;;;;;;;34.55;22.02;;;;;;;;;;4998693;28;20115;-71
2022/03/25 09:16:24;;;;;;;34.15;21.02;;;;;;;;;;4999079;28;20042;-70
2022/03/25 09:18:50;;;;;;;37.60;22.25;;;;;;;;;;4999564;28;20034;-70
2022/03/25 09:21:16;;;;;;;37.70;21.35;;;;;;;;;;5002642;28;20026;-72
2022/03/25 09:23:42;;;;;;;33.60;20.27;;;;;;;;;;5003579;28;20499;-72
2022/03/25 09:26:08;;;;;;;33.60;19.60;;;;;;;;;;5002172;28;20037;-70
2022/03/25 09:28:34;;;;;;;32.05;20.95;;;;;;;;;;5019250;28;20033;-71
2022/03/25 09:31:00;;;;;;;32.25;19.45;;;;;;;;;;5002806;28;20034;-70
2022/03/25 09:33:26;;;;;;;31.05;20.42;;;;;;;;;;5007178;28;20771;-71
2022/03/25 09:35:53;;;;;;;33.03;20.70;;;;;;;;;;5003708;28;20065;-71
2022/03/25 09:38:19;;;;;;;36.30;20.02;;;;;;;;;;5005437;28;20021;-71
2022/03/25 09:40:47;;;;;;;33.13;19.10;;;;;;;;;;5001923;28;20022;-71
2022/03/25 09:43:13;;;;;;;29.63;18.55;;;;;;;;;;5000777;28;20113;-71
2022/03/25 09:45:40;;;;;;;31.65;18.52;;;;;;;;;;5004383;28;20029;-72
2022/03/25 09:48:06;;;;;;;30.05;19.63;;;;;;;;;;5003813;28;20026;-72
2022/03/25 09:50:36;;;;;;;35.25;21.40;;;;;;;;;;5006090;28;20033;-71
2022/03/25 09:53:02;;;;;;;32.70;20.27;;;;;;;;;;5006147;28;20096;-71
2022/03/25 09:55:29;;;;;;;32.05;19.38;;;;;;;;;;5002300;28;20042;-74
2022/03/25 09:57:55;;;;;;;32.58;20.45;;;;;;;;;;5002494;28;20038;-74
2022/03/25 10:00:21;;;;;;;31.33;19.23;;;;;;;;;;5003787;28;20088;-73
2022/03/25 10:02:47;;;;;;;34.92;20.05;;;;;;;;;;5002103;28;20030;-71
2022/03/25 10:05:16;;;;;;;33.45;20.45;;;;;;;;;;5002973;28;20025;-71
2022/03/25 10:07:52;;;;;;;29.73;19.67;;;;;;;;;;5000972;28;20077;-72
2022/03/25 10:10:19;;;;;;;31.27;19.27;;;;;;;;;;5017832;28;20876;-70
2022/03/25 10:12:47;;;;;;;27.48;19.10;;;;;;;;;;5003413;28;20041;-72
2022/03/25 10:15:18;;;;;;;29.88;17.02;;;;;;;;;;4999656;28;20175;-71
2022/03/25 10:17:52;;;;;;;30.38;19.75;;;;;;;;;;5001584;28;20029;-71
2022/03/25 10:20:19;;;;;;;32.60;20.27;;;;;;;;;;5007728;28;20798;-71
2022/03/25 10:22:59;;;;;;;32.17;20.70;;;;;;;;;;5005615;28;20032;-72
2022/03/25 10:25:35;;;;;;;27.85;18.90;;;;;;;;;;5005692;28;20034;-71
2022/03/25 10:28:01;;;;;;;37.83;20.58;;;;;;;;;;5004182;28;20044;-72
2022/03/25 10:30:34;;;;;;;34.20;20.25;;;;;;;;;;5000897;28;20498;-72
2022/03/25 10:33:07;;;;;;;30.58;20.30;;;;;;;;;;5000405;28;20040;-73
2022/03/25 10:35:34;;;;;;;39.28;20.33;;;;;;;;;;5001292;28;20030;-73
2022/03/25 10:38:00;;;;;;;31.10;19.40;;;;;;;;;;5016443;28;20072;-73
2022/03/25 10:40:26;;;;;;;32.33;19.58;;;;;;;;;;5004762;28;20109;-71
2022/03/25 10:43:05;;;;;;;28.73;18.15;;;;;;;;;;5002132;28;20034;-71
2022/03/25 10:45:31;;;;;;;30.38;18.58;;;;;;;;;;5001545;28;20034;-71
2022/03/25 10:48:13;;;;;;;27.92;17.83;;;;;;;;;;5001167;28;20108;-71
2022/03/25 10:50:57;;;;;;;27.40;18.27;;;;;;;;;;5002244;28;20038;-73
2022/03/25 10:53:24;;;;;;;26.65;17.65;;;;;;;;;;5000933;28;20058;-73
2022/03/25 10:55:57;;;;;;;33.88;19.27;;;;;;;;;;5002098;28;20057;-73
2022/03/25 10:58:24;;;;;;;30.15;17.88;;;;;;;;;;5012874;28;20527;-73
2022/03/25 11:00:50;;;;;;;28.92;18.20;;;;;;;;;;4999716;28;20038;-73
2022/03/25 11:03:17;;;;;;;32.75;19.63;;;;;;;;;;5001337;28;20502;-73
2022/03/25 11:05:44;;;;;;;31.17;17.67;;;;;;;;;;5002035;28;20044;-73
2022/03/25 11:08:10;;;;;;;32.80;18.00;;;;;;;;;;5002713;28;20108;-72
2022/03/25 11:10:36;;;;;;;36.75;18.77;;;;;;;;;;5012989;28;20132;-72
2022/03/25 11:13:03;;;;;;;30.17;17.73;;;;;;;;;;5001580;28;20080;-73
2022/03/25 11:15:31;;;;;;;31.70;18.13;;;;;;;;;;5000056;28;20056;-72
2022/03/25 11:17:57;;;;;;;25.02;16.92;;;;;;;;;;5008314;28;20022;-73
2022/03/25 11:20:25;;;;;;;24.13;16.45;;;;;;;;;;5007272;28;20030;-74
2022/03/25 11:23:26;;;;;;;33.15;18.90;;;;;;;;;;5006459;28;20037;-73
2022/03/25 11:25:55;;;;;;;28.85;16.55;;;;;;;;;;5025794;28;20029;-76
2022/03/25 11:28:28;;;;;;;26.02;18.20;;;;;;;;;;5004167;28;20046;-74
2022/03/25 11:31:01;;;;;;;29.98;18.27;;;;;;;;;;4999764;28;20132;-73
2022/03/25 11:33:27;;;;;;;26.77;15.90;;;;;;;;;;4995137;28;20037;-73
2022/03/25 11:36:18;;;;;;;21.85;14.75;;;;;;;;;;5005046;28;20080;-74
2022/03/25 11:38:44;;;;;;;25.90;14.77;;;;;;;;;;5000130;28;20021;-74
2022/03/25 11:41:22;;;;;;;21.85;15.95;;;;;;;;;;5003489;28;20049;-73
2022/03/25 11:44:07;;;;;;;22.77;15.07;;;;;;;;;;4997887;28;20033;-73
2022/03/25 11:46:34;;;;;;;24.55;15.88;;;;;;;;;;5001416;28;20037;-74
2022/03/25 11:49:17;;;;;;;22.90;15.75;;;;;;;;;;5001284;28;20044;-73
2022/03/25 11:51:44;;;;;;;22.55;14.98;;;;;;;;;;5001497;28;20037;-72
2022/03/25 11:54:29;;;;;;;22.17;15.05;;;;;;;;;;4998073;28;20030;-74
2022/03/25 11:56:56;;;;;;;23.60;16.08;;;;;;;;;;4999649;28;20829;-73
2022/03/25 11:59:22;;;;;;;21.63;14.35;;;;;;;;;;4999330;28;20044;-74
2022/03/25 12:01:49;;;;;;;26.35;16.42;;;;;;;;;;4998157;28;20080;-72
2022/03/25 12:04:33;;;;;;;20.63;13.32;;;;;;;;;;4994534;28;20514;-72
2022/03/25 12:07:01;;;;;;;19.02;12.80;;;;;;;;;;4989168;28;20579;-72
2022/03/25 12:09:34;;;;;;;22.70;13.35;;;;;;;;;;4995174;28;20034;-73
2022/03/25 12:12:00;;;;;;;22.00;14.80;;;;;;;;;;4993613;28;20557;-73
2022/03/25 12:14:31;;;;;;;24.80;13.63;;;;;;;;;;4997327;28;20062;-72
2022/03/25 12:17:00;;;;;;;20.73;13.45;;;;;;;;;;4994063;28;20045;-73
2022/03/25 12:19:26;;;;;;;18.95;14.00;;;;;;;;;;4998547;28;20026;-72
2022/03/25 12:21:53;;;;;;;21.38;14.43;;;;;;;;;;4999883;28;20054;-77
2022/03/25 12:24:19;;;;;;;27.40;14.82;;;;;;;;;;5000835;28;20113;-73
2022/03/25 12:26:46;;;;;;;18.50;13.68;;;;;;;;;;5000176;28;20585;-73
2022/03/25 12:29:12;;;;;;;21.25;13.43;;;;;;;;;;4997545;28;20033;-73
2022/03/25 12:31:38;;;;;;;21.98;14.88;;;;;;;;;;4995445;28;20587;-74
2022/03/25 12:34:08;;;;;;;23.52;15.23;;;;;;;;;;5000956;28;20049;-72
2022/03/25 12:36:55;;;;;;;22.52;14.13;;;;;;;;;;5002817;28;20034;-73
2022/03/25 12:39:22;;;;;;;20.25;13.77;;;;;;;;;;5000049;28;20049;-73
2022/03/25 12:41:48;;;;;;;21.48;14.98;;;;;;;;;;4999616;28;20088;-72
2022/03/25 12:44:15;;;;;;;18.83;13.80;;;;;;;;;;5005689;28;20513;-73
2022/03/25 12:46:41;;;;;;;20.42;14.70;;;;;;;;;;5000769;28;20037;-73
2022/03/25 12:49:08;;;;;;;19.27;14.13;;;;;;;;;;5004356;28;20025;-73
2022/03/25 12:51:35;;;;;;;21.08;13.85;;;;;;;;;;5000835;28;20048;-74
2022/03/25 12:54:02;;;;;;;19.08;14.43;;;;;;;;;;5002629;28;20080;-75
2022/03/25 12:56:29;;;;;;;21.50;15.32;;;;;;;;;;4997067;28;20032;-74
2022/03/25 12:58:57;;;;;;;23.08;14.98;;;;;;;;;;4997750;28;20038;-75
2022/03/25 13:01:23;;;;;;;26.25;14.23;;;;;;;;;;4997101;28;20026;-74
2022/03/25 13:03:49;;;;;;;23.92;14.35;;;;;;;;;;4999269;28;20096;-73
2022/03/25 13:06:16;;;;;;;18.42;13.73;;;;;;;;;;4998222;28;20026;-73
2022/03/25 13:08:43;;;;;;;18.23;13.85;;;;;;;;;;5000910;28;20154;-73
2022/03/25 13:11:09;;;;;;;20.80;13.68;;;;;;;;;;4998797;28;20137;-74
2022/03/25 13:13:39;;;;;;;17.55;11.82;;;;;;;;;;4995753;28;20033;-74
2022/03/25 13:16:06;;;;;;;16.15;11.63;;;;;;;;;;5000177;28;20108;-74
2022/03/25 13:18:35;;;;;;;15.45;11.85;;;;;;;;;;4996698;28;20155;-74
2022/03/25 13:21:02;;;;;;;12.38;10.40;;;;;;;;;;5001279;28;20080;-75
2022/03/25 13:23:28;;;;;;;16.70;11.95;;;;;;;;;;4999125;28;20083;-75
2022/03/25 13:26:02;;;;;;;19.33;12.63;;;;;;;;;;4999844;28;20109;-75
2022/03/25 13:28:30;;;;;;;18.55;12.90;;;;;;;;;;5000576;28;20037;-73
2022/03/25 13:30:58;;;;;;;19.30;11.80;;;;;;;;;;5000141;28;20474;-73
2022/03/25 13:33:26;;;;;;;18.05;12.02;;;;;;;;;;4999916;28;20061;-74
2022/03/25 13:35:59;;;;;;;20.33;13.65;;;;;;;;;;5000876;28;20038;-74
2022/03/25 13:38:26;;;;;;;20.65;13.50;;;;;;;;;;5002983;28;20395;-75
2022/03/25 13:40:54;;;;;;;16.58;13.05;;;;;;;;;;5000097;28;20049;-73
2022/03/25 13:43:24;;;;;;;22.65;14.88;;;;;;;;;;5003296;28;20105;-74
2022/03/25 13:46:05;;;;;;;22.63;13.77;;;;;;;;;;5009913;28;20033;-73
2022/03/25 13:48:41;;;;;;;21.85;13.68;;;;;;;;;;4993003;28;20022;-74
2022/03/25 13:51:27;;;;;;;17.52;12.73;;;;;;;;;;5007186;28;20062;-74
2022/03/25 13:54:01;;;;;;;16.48;12.02;;;;;;;;;;4999057;28;20092;-75
2022/03/25 13:56:34;;;;;;;18.52;12.23;;;;;;;;;;5002171;28;20034;-75
2022/03/25 13:59:00;;;;;;;20.33;12.18;;;;;;;;;;5000448;28;20057;-73
2022/03/25 14:01:33;;;;;;;14.55;9.93;;;;;;;;;;5000937;28;20096;-75
2022/03/25 14:04:03;;;;;;;9.23;6.85;;;;;;;;;;5006311;28;20048;-74
2022/03/25 14:06:33;;;;;;;14.23;7.85;;;;;;;;;;4997598;28;20044;-73
2022/03/25 14:08:59;;;;;;;9.48;7.03;;;;;;;;;;5005713;28;20036;-74
2022/03/25 14:11:32;;;;;;;6.72;5.90;;;;;;;;;;5003583;28;20052;-72
2022/03/25 14:13:59;;;;;;;7.63;6.63;;;;;;;;;;4999462;28;20030;-75
2022/03/25 14:16:28;;;;;;;8.82;7.00;;;;;;;;;;5001692;28;20124;-73
2022/03/25 14:18:55;;;;;;;8.10;6.97;;;;;;;;;;4999422;28;20096;-73
2022/03/25 14:21:29;;;;;;;9.20;6.40;;;;;;;;;;5014398;28;20084;-73
2022/03/25 14:26:40;;;;;;;12.80;7.13;;;;;;;;;;5003258;28;20048;-73
2022/03/25 14:29:10;;;;;;;8.05;6.07;;;;;;;;;;5002618;28;20037;-73